Flight Track Log - Related Links

Times and Time Zones

All times are in EDT time to prevent confusion due to time zone crossing. See the JZA8474 flight status page for this flight to view local times or setup timezone preferences in your user account.

Time Position Orientation Groundspeed Altitude Reporting Facility
EDT Latitude Longitude Course Direction KTS MPH feet Rate Location/Type
Tue 02:53:00 PM 49.5520 -117.2041 45° Northeast  Level FlightAware Approximate
Tue 02:54:00 PM 49.5964 -117.1344 45° Northeast  Level FlightAware Approximate
Tue 02:54:25 PM 49.4333 -117.3833 47° Northeast 190 219 11,000  Level Vancouver Center
Tue 02:55:00 PM 49.6408 -117.0646 46° Northeast  Level FlightAware Approximate
Tue 02:55:25 PM 49.4833 -117.3000 47° Northeast 200 230 12,400  Level Vancouver Center
Tue 02:56:00 PM 49.6830 -116.9916 49° Northeast  Level FlightAware Approximate
Tue 02:56:25 PM 49.5167 -117.2333 52° Northeast 210 242 13,600  Level Vancouver Center
Tue 02:57:00 PM 49.7246 -116.9178 49° Northeast  Level FlightAware Approximate
Tue 02:57:25 PM 49.5667 -117.1500 47° Northeast 210 242 14,900  Level Vancouver Center
Tue 02:58:00 PM 49.7662 -116.8438 49° Northeast  Level FlightAware Approximate
Tue 02:58:25 PM 49.6167 -117.1000 33° Northeast 210 242 15,900  Level Vancouver Center
Tue 02:59:00 PM 49.8080 -116.7701 47° Northeast  Level FlightAware Approximate
Tue 02:59:25 PM 49.6333 -117.0333 69° East 210 242 16,800  Level Vancouver Center
Tue 03:00:25 PM 49.6833 -116.9500 47° Northeast 220 253 17,800 950 Climbing Vancouver Center
Tue 03:01:25 PM 49.7167 -116.9000 44° Northeast 220 253 18,700 850 Climbing Vancouver Center
Tue 03:02:25 PM 49.7667 -116.8333 41° Northeast 220 253 19,500 750 Climbing Vancouver Center
Tue 03:03:25 PM 49.8000 -116.7500 58° Northeast 220 253 20,200 850 Climbing Vancouver Center
Tue 03:04:25 PM 49.8500 -116.7000 33° Northeast 220 253 21,200 850 Climbing Vancouver Center
Tue 03:05:25 PM 49.8833 -116.6167 58° Northeast 220 253 21,900 650 Climbing Vancouver Center
Tue 03:06:25 PM 49.9333 -116.5500 41° Northeast 230 265 22,500 550 Climbing Vancouver Center
Tue 03:07:25 PM 49.9667 -116.4667 58° Northeast 230 265 23,000 250 Climbing Vancouver Center
Tue 03:08:25 PM 50.0167 -116.3833 47° Northeast 250 288 23,000  Level Vancouver Center
Tue 03:09:25 PM 50.0667 -116.3000 47° Northeast 260 299 23,000  Level Vancouver Center
Tue 03:10:25 PM 50.1167 -116.2333 41° Northeast 270 311 23,000  Level Vancouver Center
Tue 03:11:25 PM 50.1667 -116.1333 52° Northeast 270 311 23,000  Level Vancouver Center
Tue 03:12:25 PM 50.2333 -116.0333 44° Northeast 280 322 23,000  Level Vancouver Center
Tue 03:12:54 PM 50.2333 -116.0667 270° West 270 311 23,000  Level Edmonton Center
Tue 03:13:53 PM 50.2833 -115.9667 52° Northeast 270 311 23,000  Level Edmonton Center
Tue 03:14:53 PM 50.3333 -115.8833 47° Northeast 280 322 23,000  Level Edmonton Center
Tue 03:15:53 PM 50.3833 -115.7833 52° Northeast 270 311 23,000  Level Edmonton Center
Tue 03:16:53 PM 50.4333 -115.7167 40° Northeast 270 311 23,000  Level Edmonton Center
Tue 03:17:53 PM 50.4833 -115.6167 52° Northeast 280 322 23,000  Level Edmonton Center
Tue 03:18:53 PM 50.5333 -115.5167 52° Northeast 280 322 23,000 -550 Level Edmonton Center
Tue 03:19:53 PM 50.5667 -115.4167 62° Northeast 290 334 21,900 -1,300 Descending Edmonton Center
Tue 03:20:53 PM 50.6333 -115.3000 48° Northeast 310 357 20,400 -1,450 Descending Edmonton Center
Tue 03:21:53 PM 50.6833 -115.2167 47° Northeast 310 357 19,000 -1,565 Descending Edmonton Center
Tue 03:22:25 PM 50.7333 -115.0833 59° Northeast 310 357 18,000 -1,435 Descending Vancouver Center
Tue 03:23:25 PM 50.7667 -114.9667 66° East 310 357 16,800 -1,200 Descending Vancouver Center
Tue 03:24:25 PM 50.8333 -114.8833 38° Northeast 310 357 15,600 -1,432 Descending Vancouver Center
Tue 03:24:53 PM 50.8500 -114.8667 32° Northeast 300 345 14,700 -1,091 Descending Edmonton Center
Tue 03:25:53 PM 50.8500 -114.7333 90° East 300 345 14,000 -750 Descending Edmonton Center
Tue 03:26:53 PM 50.8667 -114.6333 75° East 290 334 13,200 -1,100 Descending Edmonton Center
Tue 03:27:53 PM 50.8667 -114.4667 90° East 300 345 11,800 -1,400 Descending Edmonton Center
Tue 03:28:53 PM 50.9000 -114.3667 62° Northeast 290 334 10,400 -1,400 Descending Edmonton Center
Tue 03:29:53 PM 50.9500 -114.2667 52° Northeast 240 276 9,000 -1,400 Descending Edmonton Center
Tue 03:30:53 PM 50.9667 -114.2000 68° East 220 253 7,600 -1,500 Descending Edmonton Center
Tue 03:31:53 PM 51.0000 -114.1000 62° Northeast 200 230 6,000 -1,050 Descending Edmonton Center
Tue 03:32:53 PM 51.0167 -114.0500 62° Northeast 150 173 5,500 -950 Descending Edmonton Center
Tue 03:33:53 PM 51.0500 -114.0500 360° North 110 127 4,100 -1,000 Descending Edmonton Center
Tue 03:34:53 PM 51.0667 -114.0333 32° Northeast 110 127 3,500 -250 Descending Edmonton Center
Tue 03:35:53 PM 51.1000 -114.0333 360° North 60 69 3,600 100 Climbing Edmonton Center

Login

Don't have an account? Register now (free) for customized features, flight alerts, and more!